Time;durP1;ratioP1;P1;durP2;ratioP2;P2;SDS_P1;SDS_P2;PMS_P1;PMS_P2;Temp;Humidity;BMP_temperature;BMP_pressure;BME280_temperature;BME280_humidity;BME280_pressure;Samples;Min_cycle;Max_cycle;Signal;HPM_P1;HPM_P2
2022/09/22 00:01:50;;;;;;;4.88;4.35;;;10.80;88.00;;;;;;5020235;28;20423;-71
2022/09/22 00:04:17;;;;;;;4.77;3.97;;;10.70;87.80;;;;;;5025832;28;20446;-70
2022/09/22 00:06:47;;;;;;;4.82;3.90;;;10.70;88.20;;;;;;5025836;28;20808;-69
2022/09/22 00:09:17;;;;;;;5.22;4.10;;;10.60;88.10;;;;;;5026368;28;20458;-70
2022/09/22 00:11:47;;;;;;;5.40;4.80;;;10.60;88.20;;;;;;5026010;28;20423;-71
2022/09/22 00:14:15;;;;;;;5.90;4.30;;;10.60;88.60;;;;;;5026012;28;20419;-69
2022/09/22 00:16:44;;;;;;;5.75;4.20;;;10.60;89.00;;;;;;5018218;28;20502;-70
2022/09/22 00:19:15;;;;;;;4.80;4.30;;;10.60;89.30;;;;;;5026501;28;20475;-70
2022/09/22 00:21:42;;;;;;;5.32;4.40;;;10.60;89.10;;;;;;5026069;28;20426;-70
2022/09/22 00:24:09;;;;;;;4.40;3.80;;;10.50;89.30;;;;;;5026804;28;20431;-71
2022/09/22 00:26:37;;;;;;;4.78;4.20;;;10.60;89.40;;;;;;5018014;28;20438;-69
2022/09/22 00:29:06;;;;;;;5.45;4.63;;;10.50;89.70;;;;;;5026214;28;20506;-69
2022/09/22 00:31:33;;;;;;;5.35;4.50;;;10.50;89.80;;;;;;5017278;28;20454;-70
2022/09/22 00:34:00;;;;;;;5.20;4.70;;;10.50;89.90;;;;;;5026975;28;20438;-70
2022/09/22 00:36:28;;;;;;;5.30;4.22;;;10.40;90.20;;;;;;5025912;28;20431;-69
2022/09/22 00:38:57;;;;;;;4.82;4.10;;;10.40;90.60;;;;;;5026526;28;20423;-69
2022/09/22 00:41:27;;;;;;;4.72;3.90;;;10.40;90.20;;;;;;5026091;28;20454;-68
2022/09/22 00:44:27;;;;;;;5.45;4.70;;;10.40;90.20;;;;;;5026190;28;20427;-69
2022/09/22 00:46:59;;;;;;;5.90;4.40;;;10.30;90.00;;;;;;5020664;28;20415;-69
2022/09/22 00:49:32;;;;;;;4.43;3.90;;;10.30;89.90;;;;;;5026206;28;20426;-69
2022/09/22 00:52:01;;;;;;;6.10;4.53;;;10.20;90.20;;;;;;5026312;28;20766;-69
2022/09/22 00:54:28;;;;;;;5.00;3.83;;;10.20;90.10;;;;;;5026488;28;21054;-69
2022/09/22 00:57:02;;;;;;;5.15;4.07;;;10.20;90.50;;;;;;5024707;28;20482;-68
2022/09/22 00:59:30;;;;;;;6.00;4.20;;;10.20;90.80;;;;;;5025204;28;20430;-72
2022/09/22 01:01:56;;;;;;;5.93;4.10;;;10.20;90.50;;;;;;5017164;28;20426;-69
2022/09/22 01:04:23;;;;;;;6.03;4.32;;;10.20;90.40;;;;;;5025753;28;20437;-69
2022/09/22 01:06:50;;;;;;;4.95;4.40;;;10.20;90.50;;;;;;5026039;28;20463;-69
2022/09/22 01:09:19;;;;;;;4.60;3.70;;;10.10;90.30;;;;;;5025802;28;20426;-69
2022/09/22 01:11:45;;;;;;;5.10;3.90;;;10.10;90.30;;;;;;5024234;28;20538;-69
2022/09/22 01:14:20;;;;;;;5.28;3.90;;;10.10;90.60;;;;;;5024957;28;20423;-70
2022/09/22 01:16:56;;;;;;;5.70;4.30;;;10.10;90.40;;;;;;5015904;28;20439;-70
2022/09/22 01:19:51;;;;;;;4.72;4.28;;;10.00;90.10;;;;;;5016263;28;20452;-70
2022/09/22 01:22:35;;;;;;;4.38;3.80;;;10.00;90.20;;;;;;5024001;28;20507;-69
2022/09/22 01:25:25;;;;;;;4.13;3.73;;;9.90;90.40;;;;;;5021101;28;20410;-69
2022/09/22 01:28:22;;;;;;;4.50;4.10;;;9.90;90.50;;;;;;5006159;28;20420;-69
2022/09/22 01:30:57;;;;;;;4.82;3.90;;;9.80;90.30;;;;;;5015930;28;20514;-69
2022/09/22 01:33:33;;;;;;;6.78;4.47;;;9.90;90.40;;;;;;5015334;28;20443;-69
2022/09/22 01:36:15;;;;;;;5.43;4.05;;;9.90;90.40;;;;;;5024607;28;20920;-70
2022/09/22 01:38:54;;;;;;;5.90;4.47;;;9.80;90.30;;;;;;5025671;28;20414;-71
2022/09/22 01:41:41;;;;;;;4.65;4.07;;;9.80;90.20;;;;;;5025055;28;20422;-72
2022/09/22 01:44:12;;;;;;;4.63;4.22;;;9.80;90.30;;;;;;5023528;28;20495;-70
2022/09/22 01:46:50;;;;;;;4.90;4.40;;;9.70;90.10;;;;;;5011999;28;20440;-71
2022/09/22 01:49:19;;;;;;;5.50;4.90;;;9.60;89.70;;;;;;5022750;28;20853;-72
2022/09/22 01:51:49;;;;;;;4.50;4.00;;;9.60;90.00;;;;;;5024584;28;20889;-71
2022/09/22 01:54:22;;;;;;;5.97;4.40;;;9.50;90.10;;;;;;5024218;28;20510;-70
2022/09/22 01:56:55;;;;;;;4.80;4.40;;;9.50;90.30;;;;;;5018567;28;20432;-70
2022/09/22 01:59:27;;;;;;;5.47;4.97;;;9.40;90.30;;;;;;5022206;28;20445;-70
2022/09/22 02:01:59;;;;;;;4.65;4.25;;;9.50;90.70;;;;;;5011774;28;20866;-71
2022/09/22 02:04:31;;;;;;;4.53;4.10;;;9.40;90.60;;;;;;5020277;28;20434;-72
2022/09/22 02:07:00;;;;;;;5.43;4.68;;;9.40;90.50;;;;;;5024087;28;20489;-71
2022/09/22 02:09:30;;;;;;;4.70;4.20;;;9.40;90.40;;;;;;5024444;28;20446;-70
2022/09/22 02:11:58;;;;;;;5.43;4.40;;;9.40;90.60;;;;;;5023869;28;20427;-71
2022/09/22 02:14:26;;;;;;;4.83;4.30;;;9.40;90.50;;;;;;5023777;28;20473;-70
2022/09/22 02:16:54;;;;;;;4.50;4.10;;;9.40;90.30;;;;;;5015163;28;20434;-70
2022/09/22 02:19:24;;;;;;;4.90;3.92;;;9.30;90.00;;;;;;5023529;28;20508;-70
2022/09/22 02:21:51;;;;;;;5.70;4.55;;;9.30;89.30;;;;;;5022920;28;20441;-70
2022/09/22 02:24:29;;;;;;;5.00;4.50;;;9.20;90.10;;;;;;5023937;28;20466;-71
2022/09/22 02:26:58;;;;;;;4.88;4.47;;;9.20;89.80;;;;;;5016286;28;20452;-70
2022/09/22 02:29:29;;;;;;;5.35;4.60;;;9.20;89.40;;;;;;5021325;28;20434;-70
2022/09/22 02:32:00;;;;;;;8.07;5.00;;;9.20;89.50;;;;;;5014400;28;20444;-72
2022/09/22 02:34:28;;;;;;;5.77;4.83;;;9.10;89.90;;;;;;5026981;28;20889;-69
2022/09/22 02:37:01;;;;;;;5.10;4.70;;;9.10;90.00;;;;;;5020858;28;20487;-71
2022/09/22 02:39:34;;;;;;;6.50;4.55;;;9.10;90.00;;;;;;5026759;28;20430;-69
2022/09/22 02:42:15;;;;;;;5.20;4.50;;;9.10;90.10;;;;;;5027692;28;20483;-71
2022/09/22 02:44:47;;;;;;;5.20;4.80;;;9.00;90.40;;;;;;5027096;28;20753;-70
2022/09/22 02:47:22;;;;;;;5.20;4.50;;;9.00;90.60;;;;;;5026189;28;20524;-71
2022/09/22 02:49:50;;;;;;;4.57;4.18;;;9.00;90.60;;;;;;5027542;28;20536;-70
2022/09/22 02:52:20;;;;;;;5.50;5.00;;;9.00;90.60;;;;;;5026985;28;20858;-71
2022/09/22 02:54:47;;;;;;;4.88;4.38;;;9.00;90.80;;;;;;5027990;28;20446;-70
2022/09/22 02:57:14;;;;;;;5.10;4.60;;;9.00;91.00;;;;;;5028017;28;20414;-70
2022/09/22 02:59:40;;;;;;;4.63;4.22;;;9.00;91.10;;;;;;5027354;28;20781;-72
2022/09/22 03:02:08;;;;;;;4.85;4.45;;;8.90;91.10;;;;;;5025984;28;20434;-70
2022/09/22 03:04:36;;;;;;;4.78;4.38;;;8.90;91.20;;;;;;5024361;28;20553;-72
2022/09/22 03:07:03;;;;;;;4.40;4.00;;;8.90;91.00;;;;;;5028049;28;20745;-72
2022/09/22 03:09:29;;;;;;;6.25;4.43;;;8.90;91.00;;;;;;5023000;28;20432;-70
2022/09/22 03:11:56;;;;;;;5.22;4.30;;;8.90;91.10;;;;;;5021458;28;20498;-70
2022/09/22 03:14:23;;;;;;;5.95;4.10;;;8.90;91.10;;;;;;5026412;28;20439;-71
2022/09/22 03:16:49;;;;;;;5.17;4.50;;;8.90;90.90;;;;;;5020321;28;20783;-71
2022/09/22 03:19:16;;;;;;;4.78;4.20;;;8.90;90.70;;;;;;5026368;28;20761;-71
2022/09/22 03:21:44;;;;;;;5.00;4.10;;;8.90;90.80;;;;;;5026566;28;20430;-71
2022/09/22 03:24:11;;;;;;;4.47;4.07;;;8.90;90.80;;;;;;5027075;28;20431;-71
2022/09/22 03:26:38;;;;;;;4.70;4.20;;;8.90;90.60;;;;;;5027329;28;20441;-70
2022/09/22 03:29:05;;;;;;;4.38;3.97;;;8.80;90.70;;;;;;5026872;28;20427;-71
2022/09/22 03:31:31;;;;;;;5.45;4.47;;;8.80;90.70;;;;;;5016997;28;20470;-70
2022/09/22 03:33:58;;;;;;;5.10;4.60;;;8.80;90.40;;;;;;5026484;28;20791;-70
2022/09/22 03:36:25;;;;;;;4.80;4.40;;;8.70;90.50;;;;;;5027148;28;20820;-70
2022/09/22 03:38:53;;;;;;;4.57;4.10;;;8.70;90.60;;;;;;5026736;28;20476;-70
2022/09/22 03:41:20;;;;;;;4.20;3.90;;;8.70;90.80;;;;;;5026638;28;20421;-71
2022/09/22 03:43:47;;;;;;;4.53;4.13;;;8.70;90.60;;;;;;5025568;28;20439;-68
2022/09/22 03:46:14;;;;;;;5.90;4.20;;;8.70;90.60;;;;;;5019984;28;20435;-70
2022/09/22 03:48:41;;;;;;;4.45;4.05;;;8.70;90.50;;;;;;5026992;28;20473;-70
2022/09/22 03:51:07;;;;;;;5.20;3.80;;;8.70;90.30;;;;;;5026239;28;20499;-69
2022/09/22 03:53:35;;;;;;;5.75;4.07;;;8.60;90.40;;;;;;5026855;28;20426;-69
2022/09/22 03:56:07;;;;;;;5.65;5.15;;;8.60;90.40;;;;;;5026858;28;20437;-71
2022/09/22 03:58:35;;;;;;;5.57;4.30;;;8.60;90.20;;;;;;5027362;28;20909;-69
2022/09/22 04:01:01;;;;;;;5.07;4.47;;;8.60;90.10;;;;;;5056705;22;20444;-70
2022/09/22 04:03:28;;;;;;;5.30;4.80;;;8.50;90.30;;;;;;5051621;28;21159;-70
2022/09/22 04:05:55;;;;;;;6.15;4.90;;;8.50;90.30;;;;;;5069833;28;20924;-69
2022/09/22 04:08:22;;;;;;;5.80;4.45;;;8.50;90.30;;;;;;5062704;28;20440;-69
2022/09/22 04:10:49;;;;;;;5.20;4.20;;;8.40;90.50;;;;;;5060642;28;20446;-70
2022/09/22 04:13:17;;;;;;;5.05;4.32;;;8.50;90.40;;;;;;5059942;28;20436;-70
2022/09/22 04:15:45;;;;;;;4.70;4.20;;;8.50;90.40;;;;;;5053976;28;20447;-70
2022/09/22 04:18:13;;;;;;;4.63;4.18;;;8.50;90.30;;;;;;5067920;28;20431;-70
2022/09/22 04:20:42;;;;;;;4.30;3.90;;;8.40;90.60;;;;;;5062033;28;20429;-70
2022/09/22 04:23:09;;;;;;;6.43;4.47;;;8.50;90.60;;;;;;5049439;28;20437;-69
2022/09/22 04:25:36;;;;;;;4.70;4.30;;;8.50;90.40;;;;;;5067771;28;20511;-72
2022/09/22 04:28:03;;;;;;;5.22;4.72;;;8.50;90.90;;;;;;5060618;28;20478;-70
2022/09/22 04:30:33;;;;;;;4.95;4.47;;;8.40;90.40;;;;;;5063934;28;20454;-70
2022/09/22 04:32:59;;;;;;;4.60;4.20;;;8.40;90.50;;;;;;5065963;28;20427;-70
2022/09/22 04:35:27;;;;;;;5.20;4.70;;;8.40;90.60;;;;;;5066372;28;20409;-70
2022/09/22 04:37:54;;;;;;;4.70;4.13;;;8.40;90.80;;;;;;5057641;28;20468;-70
2022/09/22 04:40:22;;;;;;;4.80;4.30;;;8.40;91.00;;;;;;5055162;28;20408;-70
2022/09/22 04:42:50;;;;;;;4.60;4.10;;;8.40;91.10;;;;;;5068379;28;20430;-69
2022/09/22 04:45:17;;;;;;;5.53;4.50;;;8.40;91.00;;;;;;5067066;28;20817;-70
2022/09/22 04:47:46;;;;;;;5.97;4.37;;;8.40;91.20;;;;;;5051461;28;20425;-69
2022/09/22 04:50:13;;;;;;;5.65;4.20;;;8.40;91.30;;;;;;5055857;28;20427;-72
2022/09/22 04:52:39;;;;;;;5.10;4.10;;;8.40;91.00;;;;;;5066408;28;20442;-72
2022/09/22 04:55:08;;;;;;;4.50;4.10;;;8.40;90.90;;;;;;5068843;28;20419;-72
2022/09/22 04:57:34;;;;;;;4.70;3.83;;;8.40;90.90;;;;;;5061346;28;20425;-71
2022/09/22 05:00:02;;;;;;;5.80;4.10;;;8.40;90.90;;;;;;5062632;28;20442;-71
2022/09/22 05:02:29;;;;;;;4.28;3.88;;;8.40;90.70;;;;;;5060069;28;20808;-70
2022/09/22 05:04:57;;;;;;;5.68;3.90;;;8.40;90.70;;;;;;5063430;28;20435;-70
2022/09/22 05:07:24;;;;;;;4.70;4.20;;;8.40;90.60;;;;;;5065500;28;20438;-70
2022/09/22 05:09:50;;;;;;;5.32;4.18;;;8.30;90.70;;;;;;5059526;28;20451;-70
2022/09/22 05:12:19;;;;;;;4.10;3.80;;;8.30;91.00;;;;;;5066166;28;20418;-70
2022/09/22 05:14:46;;;;;;;4.30;3.88;;;8.30;90.70;;;;;;5057392;28;20427;-71
2022/09/22 05:17:12;;;;;;;5.63;4.50;;;8.40;90.60;;;;;;5064199;28;20947;-71
2022/09/22 05:19:39;;;;;;;5.17;4.67;;;8.40;90.70;;;;;;5057593;28;20905;-71
2022/09/22 05:22:07;;;;;;;5.20;4.20;;;8.30;90.70;;;;;;5054662;28;20516;-70
2022/09/22 05:24:34;;;;;;;4.93;4.40;;;8.30;91.00;;;;;;5051617;28;20432;-71
2022/09/22 05:27:01;;;;;;;4.70;4.30;;;8.30;91.00;;;;;;5058736;28;20795;-71
2022/09/22 05:29:28;;;;;;;5.53;4.20;;;8.30;91.00;;;;;;5056213;28;20437;-71
2022/09/22 05:31:55;;;;;;;5.30;4.53;;;8.30;91.00;;;;;;5056812;28;20518;-71
2022/09/22 05:34:22;;;;;;;4.90;4.20;;;8.30;91.00;;;;;;5059386;28;20890;-71
2022/09/22 05:36:48;;;;;;;5.50;4.20;;;8.30;91.10;;;;;;5066651;28;20439;-69
2022/09/22 05:39:16;;;;;;;5.10;4.60;;;8.30;91.60;;;;;;5050235;28;20429;-71
2022/09/22 05:41:43;;;;;;;4.90;4.25;;;8.30;91.10;;;;;;5056351;28;20449;-70
2022/09/22 05:44:10;;;;;;;4.30;3.90;;;8.30;91.10;;;;;;5059273;28;20430;-70
2022/09/22 05:46:36;;;;;;;4.60;4.20;;;8.30;91.20;;;;;;5064062;28;20937;-71
2022/09/22 05:49:03;;;;;;;4.50;4.10;;;8.30;91.00;;;;;;5056984;28;20430;-70
2022/09/22 05:51:30;;;;;;;4.63;4.22;;;8.30;91.10;;;;;;5066458;28;20427;-70
2022/09/22 05:53:56;;;;;;;5.00;4.00;;;8.40;90.90;;;;;;5054686;28;20429;-70
2022/09/22 05:56:24;;;;;;;4.35;3.80;;;8.40;90.80;;;;;;5061028;28;20419;-71
2022/09/22 05:58:51;;;;;;;5.63;4.18;;;8.40;90.80;;;;;;5055727;28;20451;-71
2022/09/22 06:01:18;;;;;;;7.10;4.35;;;8.40;90.90;;;;;;5065348;28;20968;-71
2022/09/22 06:03:45;;;;;;;5.60;3.90;;;8.40;91.10;;;;;;5066846;28;20999;-70
2022/09/22 06:06:13;;;;;;;4.63;4.10;;;8.50;90.90;;;;;;5067062;28;20427;-71
2022/09/22 06:08:40;;;;;;;6.47;4.93;;;8.50;90.70;;;;;;5054751;28;20501;-70
2022/09/22 06:11:07;;;;;;;5.20;4.00;;;8.50;90.40;;;;;;5057056;28;20513;-70
2022/09/22 06:13:36;;;;;;;4.97;4.00;;;8.60;90.40;;;;;;5060665;28;20439;-70
2022/09/22 06:16:03;;;;;;;5.53;4.30;;;8.60;90.60;;;;;;5063133;28;20439;-70
2022/09/22 06:18:30;;;;;;;5.18;4.68;;;8.70;90.30;;;;;;5054976;28;20444;-71
2022/09/22 06:20:58;;;;;;;5.30;3.95;;;8.70;90.20;;;;;;5062512;28;20419;-71
2022/09/22 06:23:26;;;;;;;5.53;4.22;;;8.80;90.00;;;;;;5065910;28;20508;-70
2022/09/22 06:25:56;;;;;;;5.65;4.90;;;8.90;89.50;;;;;;5067202;28;20797;-70
2022/09/22 06:28:23;;;;;;;4.85;4.45;;;8.90;89.80;;;;;;5066885;28;20912;-70
2022/09/22 06:30:51;;;;;;;5.63;4.70;;;9.00;89.00;;;;;;5066726;28;20434;-70
2022/09/22 06:33:18;;;;;;;5.10;4.30;;;9.00;88.50;;;;;;5055334;28;20437;-70
2022/09/22 06:35:45;;;;;;;5.90;4.50;;;9.00;89.00;;;;;;5058066;28;20458;-70
2022/09/22 06:38:14;;;;;;;4.70;4.30;;;9.10;89.20;;;;;;5060338;28;20797;-70
2022/09/22 06:40:41;;;;;;;5.22;4.18;;;9.10;89.30;;;;;;5062180;28;21008;-70
2022/09/22 06:43:21;;;;;;;4.65;4.20;;;9.20;88.60;;;;;;5061276;28;20435;-70
2022/09/22 06:45:49;;;;;;;5.45;4.35;;;9.30;88.50;;;;;;5066670;28;20430;-70
2022/09/22 06:48:18;;;;;;;6.10;4.37;;;9.40;87.70;;;;;;5061749;28;20796;-70
2022/09/22 06:50:50;;;;;;;4.88;4.40;;;9.40;87.10;;;;;;5066904;28;20419;-71
2022/09/22 06:53:17;;;;;;;4.40;4.00;;;9.50;86.60;;;;;;5065800;28;20462;-70
2022/09/22 06:55:45;;;;;;;5.47;3.85;;;9.60;86.50;;;;;;5065636;28;20427;-70
2022/09/22 06:58:12;;;;;;;5.15;4.10;;;9.80;85.90;;;;;;5058137;28;20421;-70
2022/09/22 07:00:41;;;;;;;5.90;4.00;;;9.80;84.50;;;;;;5058250;28;20428;-70
2022/09/22 07:03:16;;;;;;;4.38;3.97;;;9.90;84.60;;;;;;5061115;28;20444;-70
2022/09/22 07:05:52;;;;;;;5.22;3.90;;;10.00;84.10;;;;;;5067522;28;20513;-70
2022/09/22 07:08:19;;;;;;;4.10;3.78;;;10.20;83.90;;;;;;5067052;28;20487;-70
2022/09/22 07:10:46;;;;;;;5.88;4.22;;;10.30;81.90;;;;;;5066637;28;20909;-70
2022/09/22 07:13:12;;;;;;;4.32;3.70;;;10.40;82.50;;;;;;5065824;28;20428;-70
2022/09/22 07:15:39;;;;;;;5.25;3.70;;;10.50;81.70;;;;;;5062569;28;20423;-70
2022/09/22 07:18:06;;;;;;;4.07;3.63;;;10.50;81.40;;;;;;5063053;28;20809;-71
2022/09/22 07:20:34;;;;;;;4.38;3.70;;;10.70;80.80;;;;;;5050373;28;20504;-69
2022/09/22 07:23:02;;;;;;;4.47;3.90;;;10.80;79.60;;;;;;5068636;28;20442;-70
2022/09/22 07:25:32;;;;;;;5.07;3.78;;;10.90;79.80;;;;;;5061922;28;20883;-70
2022/09/22 07:28:03;;;;;;;5.57;4.15;;;11.10;78.80;;;;;;5063945;28;20437;-70
2022/09/22 07:30:30;;;;;;;3.70;3.40;;;11.30;78.60;;;;;;5059303;28;20947;-69
2022/09/22 07:32:57;;;;;;;6.70;3.50;;;11.40;77.80;;;;;;5063928;28;20421;-70
2022/09/22 07:35:27;;;;;;;4.90;3.60;;;11.60;76.30;;;;;;5064569;28;20450;-70
2022/09/22 07:37:55;;;;;;;4.28;3.80;;;11.60;76.00;;;;;;5070313;28;20420;-70
2022/09/22 07:40:23;;;;;;;6.80;3.90;;;11.70;75.90;;;;;;5069005;28;20431;-69
2022/09/22 07:42:50;;;;;;;4.17;3.77;;;12.00;75.30;;;;;;5061594;28;20426;-70
2022/09/22 07:45:17;;;;;;;6.22;3.70;;;12.20;74.40;;;;;;5065065;28;20797;-69
2022/09/22 07:50:29;;;;;;;6.50;4.22;;;12.60;72.60;;;;;;5069508;28;20553;-70
2022/09/22 07:52:56;;;;;;;4.05;3.30;;;12.60;72.40;;;;;;5069520;28;20419;-69
2022/09/22 07:55:24;;;;;;;3.80;3.50;;;12.70;71.50;;;;;;5069449;28;20416;-69
2022/09/22 07:57:55;;;;;;;3.33;3.03;;;12.90;71.10;;;;;;5063045;28;20446;-70
2022/09/22 08:00:23;;;;;;;5.13;3.50;;;13.20;70.20;;;;;;5058874;28;20436;-69
2022/09/22 08:02:55;;;;;;;5.80;3.40;;;13.30;69.40;;;;;;5063462;28;20411;-69
2022/09/22 08:05:23;;;;;;;4.77;3.40;;;13.40;69.40;;;;;;5066395;28;20495;-69
2022/09/22 08:07:50;;;;;;;5.82;3.65;;;13.50;67.80;;;;;;5061479;28;20429;-69
2022/09/22 08:10:18;;;;;;;4.30;3.30;;;13.60;68.10;;;;;;5061916;28;20424;-68
2022/09/22 08:12:46;;;;;;;4.72;3.70;;;13.60;68.10;;;;;;5061185;28;20823;-69
2022/09/22 08:15:13;;;;;;;4.67;3.30;;;13.70;67.40;;;;;;5062817;28;20523;-69
2022/09/22 08:17:39;;;;;;;3.40;3.00;;;13.80;67.40;;;;;;5067124;28;20431;-70
2022/09/22 08:20:08;;;;;;;4.00;3.10;;;13.90;66.70;;;;;;5069471;28;20469;-69
2022/09/22 08:22:35;;;;;;;3.90;3.20;;;14.20;65.90;;;;;;5061854;28;20423;-70
2022/09/22 08:25:02;;;;;;;3.70;3.38;;;14.40;64.90;;;;;;5066331;28;20412;-70
2022/09/22 08:27:29;;;;;;;4.88;3.13;;;14.60;64.60;;;;;;5069744;28;20427;-70
2022/09/22 08:29:57;;;;;;;5.15;4.00;;;14.90;63.50;;;;;;5060893;28;20435;-68
2022/09/22 08:32:25;;;;;;;4.60;3.58;;;15.10;62.90;;;;;;5068969;28;20522;-70
2022/09/22 08:34:56;;;;;;;5.10;3.42;;;15.20;61.30;;;;;;5065817;28;20437;-70
2022/09/22 08:37:26;;;;;;;3.90;3.10;;;15.20;60.80;;;;;;5061345;28;20469;-70
2022/09/22 08:39:53;;;;;;;3.42;2.80;;;15.30;61.30;;;;;;5069571;28;20424;-70
2022/09/22 08:42:22;;;;;;;3.00;2.67;;;15.40;61.00;;;;;;5064504;28;20457;-70
2022/09/22 08:44:58;;;;;;;4.47;2.78;;;15.40;60.90;;;;;;5063917;28;20434;-71
2022/09/22 08:53:13;;;;;;;4.10;2.50;;;16.40;58.50;;;;;;5064819;28;20423;-70
2022/09/22 08:55:43;;;;;;;3.40;2.57;;;16.70;57.70;;;;;;5058879;28;20427;-69
2022/09/22 08:58:26;;;;;;;3.80;2.40;;;16.80;56.10;;;;;;5061416;28;20940;-69
2022/09/22 09:01:00;;;;;;;4.25;2.60;;;16.90;55.40;;;;;;5065046;28;20423;-69
2022/09/22 09:03:41;;;;;;;4.72;2.30;;;17.00;55.50;;;;;;5067003;28;20411;-69
2022/09/22 09:06:12;;;;;;;3.67;2.40;;;17.20;54.80;;;;;;5064400;28;20427;-70
2022/09/22 09:09:06;;;;;;;3.10;2.30;;;17.60;53.80;;;;;;5056570;28;20497;-69
2022/09/22 09:11:51;;;;;;;2.67;2.00;;;17.90;52.40;;;;;;5065274;28;20419;-69
2022/09/22 09:50:43;;;;;;;2.67;1.80;;;19.10;46.70;;;;;;5012471;28;1977392;-68
2022/09/22 09:53:27;;;;;;;2.90;1.83;;;19.30;45.20;;;;;;5059048;28;20537;-67
2022/09/22 09:55:54;;;;;;;1.90;1.60;;;19.50;46.90;;;;;;5057305;28;20439;-68
2022/09/22 10:01:01;;;;;;;3.58;1.70;;;20.40;45.40;;;;;;5055966;28;20432;-66
2022/09/22 10:03:30;;;;;;;2.28;1.70;;;20.80;43.80;;;;;;5055941;28;20420;-67
2022/09/22 10:06:01;;;;;;;2.58;1.80;;;21.10;43.50;;;;;;5047488;28;20420;-67
2022/09/22 10:08:35;;;;;;;2.55;1.63;;;21.30;43.10;;;;;;5057286;28;20986;-68
2022/09/22 10:11:04;;;;;;;1.73;1.58;;;21.60;42.60;;;;;;5045008;28;20429;-67
2022/09/22 10:13:35;;;;;;;6.20;2.00;;;21.80;41.50;;;;;;5054572;28;20443;-68
2022/09/22 10:16:21;;;;;;;3.17;1.95;;;21.80;40.70;;;;;;5045290;28;20425;-67
2022/09/22 10:18:48;;;;;;;2.83;1.88;;;22.10;41.60;;;;;;5052013;28;20453;-67
2022/09/22 10:21:18;;;;;;;2.38;1.50;;;22.20;40.10;;;;;;5063483;28;20424;-67
2022/09/22 10:23:47;;;;;;;1.95;1.40;;;22.30;39.60;;;;;;5063819;28;20448;-67
2022/09/22 10:26:17;;;;;;;3.47;1.40;;;22.40;38.70;;;;;;5061926;28;20437;-67
2022/09/22 10:28:49;;;;;;;1.77;1.60;;;22.30;38.70;;;;;;5053331;28;20444;-67
2022/09/22 10:31:23;;;;;;;3.30;1.50;;;22.30;39.90;;;;;;5037813;28;20511;-67
2022/09/22 10:33:58;;;;;;;2.63;1.58;;;22.50;40.20;;;;;;5041630;28;20508;-68
2022/09/22 10:36:29;;;;;;;2.30;1.35;;;22.70;38.40;;;;;;5050437;28;20440;-68
2022/09/22 10:38:56;;;;;;;1.30;1.20;;;22.90;37.60;;;;;;5041135;28;20464;-67
2022/09/22 10:41:29;;;;;;;1.23;1.13;;;23.00;35.90;;;;;;5046977;28;20441;-68
2022/09/22 10:43:59;;;;;;;2.35;1.50;;;22.70;35.10;;;;;;5041060;28;20513;-67
2022/09/22 10:46:54;;;;;;;2.40;1.20;;;22.30;36.60;;;;;;5049077;28;20471;-68
2022/09/22 10:49:38;;;;;;;2.55;1.20;;;22.50;36.90;;;;;;5042980;28;20417;-68
2022/09/22 10:52:15;;;;;;;2.10;1.33;;;22.70;36.20;;;;;;5046272;28;20444;-67
2022/09/22 10:55:14;;;;;;;3.00;1.50;;;22.60;35.30;;;;;;5049136;28;20896;-64
2022/09/22 10:58:00;;;;;;;1.27;1.17;;;22.60;36.40;;;;;;5040201;28;20426;-70
2022/09/22 11:00:28;;;;;;;2.40;1.27;;;22.90;35.90;;;;;;5048515;28;20910;-64
2022/09/22 11:03:30;;;;;;;2.10;1.20;;;23.10;34.70;;;;;;5046359;28;20893;-63
2022/09/22 11:15:02;;;;;;;2.03;1.30;;;22.70;32.30;;;;;;5039930;28;20458;-63
2022/09/22 11:17:46;;;;;;;1.40;1.30;;;22.70;34.10;;;;;;5034783;28;20847;-64
2022/09/22 11:20:31;;;;;;;1.90;1.30;;;22.60;33.20;;;;;;5039499;28;20419;-63
2022/09/22 11:23:26;;;;;;;1.13;1.02;;;22.50;33.50;;;;;;5036367;28;20815;-63
2022/09/22 11:26:06;;;;;;;1.30;1.20;;;22.90;33.40;;;;;;5047609;28;20552;-65
2022/09/22 11:28:49;;;;;;;1.20;1.10;;;23.00;32.80;;;;;;5037471;28;20407;-63
2022/09/22 11:31:30;;;;;;;1.23;1.10;;;22.70;32.40;;;;;;5037392;28;20417;-63
2022/09/22 11:34:19;;;;;;;1.40;1.30;;;22.70;32.70;;;;;;5051315;28;20417;-63
2022/09/22 11:36:54;;;;;;;2.20;1.10;;;22.80;32.20;;;;;;5055644;28;20928;-63
2022/09/22 11:39:35;;;;;;;1.50;1.30;;;22.70;33.00;;;;;;5040272;28;20414;-63
2022/09/22 11:42:15;;;;;;;1.58;1.10;;;22.90;32.90;;;;;;5045877;28;20433;-63
2022/09/22 11:44:50;;;;;;;2.00;1.20;;;23.10;32.50;;;;;;5041403;28;20913;-63
2022/09/22 11:47:57;;;;;;;1.98;1.00;;;23.10;32.80;;;;;;5045165;28;20781;-63
2022/09/22 11:50:46;;;;;;;2.10;1.00;;;23.40;32.10;;;;;;5044882;28;20416;-63
2022/09/22 11:53:58;;;;;;;1.38;0.90;;;23.60;30.70;;;;;;5048543;28;20513;-62
2022/09/22 11:56:34;;;;;;;1.20;0.90;;;23.40;31.10;;;;;;5036803;28;20507;-63
2022/09/22 11:59:05;;;;;;;1.17;1.00;;;23.30;31.30;;;;;;5042592;28;20421;-65
2022/09/22 12:01:39;;;;;;;1.10;0.90;;;23.60;30.00;;;;;;5043913;28;21184;-64
2022/09/22 12:04:15;;;;;;;1.88;1.00;;;23.70;29.70;;;;;;5048111;28;20475;-63
2022/09/22 12:06:46;;;;;;;1.00;0.90;;;23.50;29.70;;;;;;5047408;28;20433;-63
2022/09/22 12:09:25;;;;;;;1.00;0.90;;;23.20;30.70;;;;;;5040004;28;20421;-64
2022/09/22 12:11:54;;;;;;;1.50;0.90;;;23.50;30.70;;;;;;5044582;28;20429;-64
2022/09/22 12:14:23;;;;;;;1.30;0.80;;;23.70;30.00;;;;;;5043685;28;20463;-63
2022/09/22 12:16:57;;;;;;;1.77;0.93;;;23.60;29.50;;;;;;5039244;28;20432;-64
2022/09/22 12:19:34;;;;;;;0.90;0.80;;;23.30;29.80;;;;;;5038334;28;20531;-64
2022/09/22 12:22:07;;;;;;;1.10;1.00;;;23.30;30.20;;;;;;5054001;28;20420;-64
2022/09/22 12:24:34;;;;;;;1.40;0.80;;;23.50;29.90;;;;;;5079805;22;20489;-73
2022/09/22 12:27:10;;;;;;;1.70;0.90;;;23.50;29.70;;;;;;5062567;28;20433;-73
2022/09/22 12:29:39;;;;;;;1.00;0.80;;;23.50;29.50;;;;;;5058752;28;20427;-72
2022/09/22 12:32:06;;;;;;;1.60;0.90;;;23.40;29.60;;;;;;5064003;28;20412;-73
2022/09/22 12:34:38;;;;;;;0.73;0.60;;;23.40;28.60;;;;;;5063198;28;20887;-70
2022/09/22 12:37:11;;;;;;;1.00;0.70;;;23.40;29.20;;;;;;5060198;28;20556;-74
2022/09/22 12:39:41;;;;;;;1.17;0.80;;;23.40;29.50;;;;;;5063090;28;20422;-72
2022/09/22 12:42:19;;;;;;;1.13;0.80;;;23.40;28.90;;;;;;5057087;28;20459;-72
2022/09/22 12:44:53;;;;;;;0.95;0.80;;;23.70;29.10;;;;;;5060323;28;20928;-74
2022/09/22 12:47:24;;;;;;;1.15;0.80;;;24.60;28.90;;;;;;5061194;28;20442;-71
2022/09/22 12:49:55;;;;;;;1.00;0.70;;;24.60;27.60;;;;;;5062599;28;20419;-72
2022/09/22 12:53:01;;;;;;;1.20;0.80;;;24.60;27.60;;;;;;5062023;28;20442;-74
2022/09/22 12:55:37;;;;;;;1.00;0.80;;;24.20;28.00;;;;;;5073405;28;20542;-75
2022/09/22 12:58:20;;;;;;;1.40;0.80;;;23.80;27.80;;;;;;5062109;28;20453;-73
2022/09/22 13:00:49;;;;;;;1.77;0.90;;;23.70;28.60;;;;;;5050683;28;20433;-74
2022/09/22 13:03:40;;;;;;;1.00;0.90;;;23.80;29.30;;;;;;5053928;28;20920;-74
2022/09/22 13:06:42;;;;;;;1.20;0.80;;;24.00;28.30;;;;;;5053832;28;20456;-73
2022/09/22 13:09:19;;;;;;;1.20;0.90;;;23.60;28.30;;;;;;5060870;28;20460;-73
2022/09/22 13:12:05;;;;;;;1.10;0.80;;;23.70;27.70;;;;;;5062377;28;20431;-75
2022/09/22 13:14:59;;;;;;;0.90;0.80;;;23.70;27.80;;;;;;5055303;28;20408;-73
2022/09/22 13:17:39;;;;;;;1.30;0.80;;;23.80;27.60;;;;;;5063954;28;20934;-73
2022/09/22 13:20:18;;;;;;;1.00;0.70;;;23.90;27.40;;;;;;5062696;28;20482;-74
2022/09/22 13:22:45;;;;;;;1.13;0.60;;;23.90;27.90;;;;;;5055687;28;20408;-74
2022/09/22 13:25:27;;;;;;;0.80;0.80;;;24.20;27.90;;;;;;5063218;28;20446;-72
2022/09/22 13:28:12;;;;;;;1.02;0.70;;;24.70;28.10;;;;;;5053288;28;20444;-71
2022/09/22 13:30:40;;;;;;;0.80;0.80;;;25.30;27.00;;;;;;5062109;28;20423;-73
2022/09/22 13:33:18;;;;;;;1.10;0.70;;;24.90;27.00;;;;;;5061651;28;20420;-73
2022/09/22 13:35:46;;;;;;;0.80;0.70;;;24.60;27.80;;;;;;5061660;28;20443;-74
2022/09/22 13:38:14;;;;;;;1.30;0.70;;;24.20;26.70;;;;;;5069989;28;20425;-74
2022/09/22 13:40:48;;;;;;;1.00;0.90;;;24.10;27.90;;;;;;5081901;28;20436;-73
2022/09/22 13:43:24;;;;;;;0.90;0.70;;;24.00;27.10;;;;;;5071802;28;20429;-72
2022/09/22 13:45:51;;;;;;;2.13;0.90;;;23.80;28.00;;;;;;5071284;28;20429;-71
2022/09/22 13:48:21;;;;;;;1.60;0.80;;;23.60;28.10;;;;;;5074377;28;20473;-72
2022/09/22 13:50:51;;;;;;;1.63;0.70;;;23.70;27.80;;;;;;5073694;28;20430;-72
2022/09/22 13:53:20;;;;;;;1.70;1.00;;;23.70;27.30;;;;;;5081822;28;20406;-72
2022/09/22 13:55:49;;;;;;;1.00;0.90;;;23.80;27.90;;;;;;5076493;28;20502;-72
2022/09/22 13:58:22;;;;;;;1.40;1.00;;;23.90;28.90;;;;;;5071853;28;20435;-72
2022/09/22 14:00:55;;;;;;;1.70;0.85;;;24.00;28.10;;;;;;5076387;28;20965;-73
2022/09/22 14:03:28;;;;;;;1.10;0.80;;;24.10;28.60;;;;;;5080284;28;20419;-73
2022/09/22 14:05:56;;;;;;;2.08;1.00;;;24.00;29.30;;;;;;5082545;28;20403;-73
2022/09/22 14:08:28;;;;;;;1.15;1.00;;;24.10;29.00;;;;;;5081694;28;20426;-73
2022/09/22 14:10:56;;;;;;;1.20;0.90;;;24.10;28.80;;;;;;5076250;28;20453;-73